| time (UTC) | temp C | wind direction | speed KPH | gust KPH | rain 1hr cm | rain 24hr cm | rain mn cm | humidity % | barometer mb |
| 20260506144519 | 12 | 328 | 4.8 | 14.5 | 0.00 | 0.15 | 0.00 | 82 | 1009.5 |
| 20260506143026 | 13 | 344 | 6.4 | 16.1 | 0.00 | 0.15 | 0.00 | 80 | 1009.4 |
| 20260506141526 | 12 | 185 | 1.6 | 8.0 | 0.00 | 0.15 | 0.00 | 79 | 1009.1 |
| 20260506140016 | 12 | 185 | 1.6 | 6.4 | 0.00 | 0.15 | 0.00 | 79 | 1009.1 |
| 20260506134525 | 13 | 200 | 4.8 | 16.1 | 0.00 | 0.15 | 0.00 | 74 | 1009.3 |
| 20260506133035 | 14 | 259 | 9.7 | 20.9 | 0.00 | 0.15 | 0.00 | 69 | 1009.3 |
| 20260506131523 | 15 | 254 | 11.3 | 19.3 | 0.00 | 0.15 | 0.00 | 70 | 1009.1 |
| 20260506130028 | 15 | 257 | 6.4 | 17.7 | 0.00 | 0.15 | 0.00 | 73 | 1009.1 |
| 20260506124510 | 14 | 219 | 11.3 | 19.3 | 0.00 | 0.15 | 0.00 | 73 | 1009.3 |
| 20260506123017 | 14 | 238 | 11.3 | 19.3 | 0.00 | 0.18 | 0.00 | 74 | 1009.3 |
| 20260506121522 | 14 | 210 | 8.0 | 24.1 | 0.00 | 0.28 | 0.00 | 77 | 1009.3 |
| 20260506120026 | 13 | 192 | 12.9 | 22.5 | 0.00 | 0.48 | 0.00 | 77 | 1009.3 |
| 20260506114528 | 13 | 213 | 14.5 | 20.9 | 0.00 | 0.48 | 0.00 | 79 | 1009.4 |
| 20260506113015 | 13 | 196 | 11.3 | 22.5 | 0.00 | 0.48 | 0.00 | 79 | 1009.5 |
| 20260506111520 | 13 | 223 | 9.7 | 20.9 | 0.00 | 0.48 | 0.00 | 81 | 1009.5 |
| 20260506110026 | 13 | 221 | 12.9 | 20.9 | 0.00 | 0.48 | 0.00 | 79 | 1009.7 |
| 20260506104551 | 12 | 217 | 9.7 | 19.3 | 0.00 | 0.48 | 0.00 | 80 | 1009.7 |
| 20260506103031 | 12 | 219 | 11.3 | 19.3 | 0.00 | 0.48 | 0.00 | 81 | 1009.7 |
| 20260506101518 | 12 | 220 | 12.9 | 20.9 | 0.00 | 0.48 | 0.00 | 83 | 1009.8 |
| 20260506100004 | 12 | 227 | 12.9 | 19.3 | 0.00 | 0.48 | 0.00 | 84 | 1009.6 |
| 20260506094504 | 11 | 222 | 11.3 | 22.5 | 0.00 | 0.48 | 0.00 | 86 | 1009.6 |
| 20260506093010 | 11 | 238 | 6.4 | 19.3 | 0.00 | 0.48 | 0.00 | 88 | 1009.6 |
| 20260506091516 | 11 | 238 | 9.7 | 19.3 | 0.00 | 0.48 | 0.00 | 88 | 1009.4 |
| 20260506090020 | 11 | 232 | 8.0 | 16.1 | 0.00 | 0.48 | 0.00 | 88 | 1009.3 |
| 20260506084506 | 11 | 229 | 12.9 | 19.3 | 0.00 | 0.48 | 0.00 | 87 | 1009.1 |
| 20260506083018 | 11 | 221 | 9.7 | 16.1 | 0.00 | 0.48 | 0.00 | 86 | 1009.1 |
| 20260506081513 | 11 | 236 | 8.0 | 14.5 | 0.00 | 0.48 | 0.00 | 87 | 1008.9 |
| 20260506073005 | 10 | 230 | 3.2 | 12.9 | 0.00 | 0.48 | 0.00 | 88 | 1008.8 |
| 20260506071509 | 10 | 247 | 6.4 | 11.3 | 0.00 | 0.48 | 0.00 | 88 | 1008.6 |
| 20260506061508 | 10 | 250 | 6.4 | 11.3 | 0.00 | 0.51 | 0.00 | 90 | 1008.1 |
| 20260506044513 | 10 | 285 | 3.2 | 8.0 | 0.00 | 0.56 | 0.00 | 90 | 1007.5 |
| 20260506043019 | 10 | 245 | 4.8 | 8.0 | 0.00 | 0.56 | 0.00 | 90 | 1007.6 |
| 20260506041524 | 10 | 250 | 3.2 | 8.0 | 0.00 | 0.56 | 0.00 | 90 | 1007.5 |
| 20260506040040 | 10 | 243 | 1.6 | 11.3 | 0.00 | 0.56 | 0.00 | 90 | 1007.5 |
| 20260506034513 | 10 | 246 | 3.2 | 8.0 | 0.00 | 0.56 | 0.00 | 89 | 1007.5 |
| 20260506033021 | 10 | 258 | 6.4 | 11.3 | 0.00 | 0.56 | 0.00 | 89 | 1007.5 |
| 20260506031524 | 10 | 248 | 3.2 | 11.3 | 0.00 | 0.56 | 0.00 | 89 | 1007.7 |
| 20260506024536 | 10 | 243 | 3.2 | 6.4 | 0.00 | 0.56 | 0.00 | 89 | 1007.8 |
| 20260506023012 | 10 | 260 | 4.8 | 9.7 | 0.00 | 0.56 | 0.00 | 89 | 1007.7 |
| 20260506021538 | 10 | 251 | 4.8 | 9.7 | 0.00 | 0.56 | 0.00 | 88 | 1007.7 |
| 20260506020024 | 10 | 256 | 4.8 | 11.3 | 0.00 | 0.56 | 0.00 | 88 | 1007.7 |
| 20260506014527 | 10 | 280 | 3.2 | 6.4 | 0.00 | 0.56 | 0.00 | 88 | 1007.8 |
| 20260506013027 | 11 | 243 | 1.6 | 6.4 | 0.00 | 0.56 | 0.00 | 88 | 1008.0 |
| 20260506011523 | 11 | 271 | 1.6 | 6.4 | 0.00 | 0.56 | 0.00 | 88 | 1008.1 |
| 20260506010021 | 11 | 255 | 3.2 | 6.4 | 0.00 | 0.56 | 0.00 | 87 | 1008.3 |
| 20260506004505 | 11 | 213 | 3.2 | 8.0 | 0.00 | 0.58 | 0.00 | 87 | 1008.4 |
| 20260506003007 | 11 | 204 | 4.8 | 8.0 | 0.00 | 0.58 | 0.00 | 87 | 1008.6 |
| 20260506001514 | 11 | 204 | 3.2 | 9.7 | 0.00 | 0.58 | 0.00 | 87 | 1008.7 |
| 20260506000019 | 11 | 204 | 3.2 | 6.4 | 0.00 | 0.61 | 0.00 | 87 | 1008.8 |
| 20260505234522 | 11 | 204 | 1.6 | 4.8 | 0.00 | 0.61 | 0.00 | 88 | 1008.9 |
| 20260505233008 | 11 | 204 | 0.0 | 3.2 | 0.00 | 0.61 | 0.00 | 88 | 1009.0 |
| 20260505231522 | 11 | 204 | 1.6 | 6.4 | 0.00 | 0.61 | 0.00 | 88 | 1009.1 |
| 20260505230017 | 11 | 204 | 1.6 | 8.0 | 0.00 | 0.64 | 0.00 | 88 | 1009.2 |
| 20260505224528 | 11 | 188 | 4.8 | 11.3 | 0.00 | 0.66 | 0.00 | 88 | 1009.2 |
| 20260505223027 | 10 | 203 | 3.2 | 9.7 | 0.00 | 0.66 | 0.00 | 88 | 1009.4 |
| 20260505221508 | 10 | 203 | 6.4 | 12.9 | 0.00 | 0.69 | 0.00 | 88 | 1009.3 |
| 20260505220012 | 10 | 221 | 6.4 | 11.3 | 0.00 | 0.69 | 0.00 | 88 | 1009.4 |
| 20260505214518 | 10 | 244 | 3.2 | 9.7 | 0.00 | 0.69 | 0.69 | 87 | 1009.3 |
| 20260505213027 | 11 | 226 | 6.4 | 11.3 | 0.00 | 0.69 | 0.69 | 87 | 1009.5 |
| 20260505211538 | 11 | 213 | 4.8 | 9.7 | 0.00 | 0.69 | 0.69 | 86 | 1009.8 |
| 20260505210013 | 11 | 224 | 3.2 | 6.4 | 0.00 | 0.69 | 0.69 | 87 | 1009.8 |
| 20260505204518 | 10 | 205 | 6.4 | 9.7 | 0.00 | 0.69 | 0.69 | 88 | 1009.8 |
| 20260505203021 | 10 | 232 | 1.6 | 3.2 | 0.00 | 0.69 | 0.69 | 90 | 1010.0 |
| 20260505201523 | 10 | 232 | 0.0 | 1.6 | 0.00 | 0.69 | 0.69 | 89 | 1010.1 |
| 20260505200025 | 10 | 232 | 0.0 | 0.0 | 0.00 | 0.69 | 0.69 | 88 | 1009.9 |
| 20260505194517 | 10 | 232 | 0.0 | 1.6 | 0.00 | 0.69 | 0.69 | 86 | 1009.5 |
| 20260505193020 | 11 | 232 | 1.6 | 4.8 | 0.00 | 0.69 | 0.69 | 86 | 1009.3 |
| 20260505191524 | 11 | 229 | 4.8 | 8.0 | 0.00 | 0.74 | 0.69 | 87 | 1009.2 |
| 20260505190023 | 11 | 231 | 1.6 | 6.4 | 0.00 | 0.86 | 0.69 | 88 | 1008.8 |
| 20260505184534 | 12 | 285 | 1.6 | 4.8 | 0.00 | 0.94 | 0.69 | 87 | 1008.8 |
| 20260505183016 | 12 | 285 | 0.0 | 3.2 | 0.03 | 0.94 | 0.69 | 87 | 1008.5 |
| 20260505181521 | 12 | 285 | 0.0 | 3.2 | 0.15 | 0.94 | 0.69 | 87 | 1008.4 |
| 20260505180027 | 12 | 285 | 0.0 | 4.8 | 0.15 | 0.94 | 0.69 | 86 | 1008.3 |
| 20260505174528 | 12 | 288 | 0.0 | 3.2 | 0.15 | 0.94 | 0.69 | 86 | 1008.6 |
| 20260505173016 | 12 | 288 | 1.6 | 14.5 | 0.13 | 0.91 | 0.66 | 83 | 1008.8 |
| 20260505171517 | 13 | 301 | 9.7 | 27.4 | 0.00 | 0.79 | 0.53 | 77 | 1008.8 |
| 20260505170004 | 16 | 233 | 3.2 | 9.7 | 0.00 | 0.79 | 0.53 | 69 | 1008.3 |
| 20260505164507 | 16 | 235 | 6.4 | 11.3 | 0.00 | 0.79 | 0.53 | 65 | 1008.1 |
| 20260505163010 | 17 | 245 | 8.0 | 19.3 | 0.00 | 0.79 | 0.53 | 62 | 1008.1 |
| 20260505161516 | 17 | 235 | 12.9 | 22.5 | 0.00 | 0.79 | 0.53 | 61 | 1007.9 |
| 20260505153009 | 17 | 243 | 11.3 | 19.3 | 0.00 | 0.79 | 0.53 | 66 | 1008.0 |
| 20260505151517 | 17 | 236 | 9.7 | 16.1 | 0.00 | 0.79 | 0.53 | 63 | 1008.2 |